Time,TemperatureF,DewpointF,PressureIn,WindDirection,WindDirectionDegrees,WindSpeedMPH,WindSpeedGustMPH,Humidity,HourlyPrecipIn,Conditions,Clouds,dailyrainin,SoftwareType,DateUTC
2014-01-18 00:00:00,26.3,24.6,29.71,NNW,338,0.0,0.0,93,0.00,,,0.00,VWS V14.01,2014-01-18 05:00:00,
2014-01-18 00:01:00,26.3,24.6,29.71,NNW,338,0.0,0.0,93,0.00,,,0.00,VWS V14.01,2014-01-18 05:01:00,
2014-01-18 00:02:00,26.3,24.6,29.71,NNW,338,0.0,0.0,93,0.00,,,0.00,VWS V14.01,2014-01-18 05:02:00,
2014-01-18 00:07:00,26.3,24.6,29.71,NNW,338,0.9,1.6,93,0.00,,,0.00,VWS V14.01,2014-01-18 05:07:00,
2014-01-18 00:12:00,26.3,24.6,29.71,NNW,338,0.0,0.0,93,0.00,,,0.00,VWS V14.01,2014-01-18 05:12:00,
2014-01-18 00:17:00,26.3,24.6,29.71,NNW,338,0.0,0.0,93,0.00,,,0.00,VWS V14.01,2014-01-18 05:17:00,
2014-01-18 00:22:00,26.3,24.6,29.71,NNW,338,0.0,0.0,93,0.00,,,0.00,VWS V14.01,2014-01-18 05:22:00,
2014-01-18 00:27:00,26.3,24.6,29.71,NNW,338,0.0,0.0,93,0.00,,,0.00,VWS V14.01,2014-01-18 05:27:00,
2014-01-18 00:30:00,26.3,24.6,29.71,NNW,338,0.0,0.0,93,0.00,,,0.00,VWS V14.01,2014-01-18 05:30:00,
2014-01-18 00:32:00,26.3,24.6,29.71,NNW,338,0.0,0.0,93,0.00,,,0.00,VWS V14.01,2014-01-18 05:32:00,
2014-01-18 00:37:00,26.3,24.6,29.71,NNW,338,0.0,0.0,93,0.00,,,0.00,VWS V14.01,2014-01-18 05:37:00,
2014-01-18 00:42:00,26.3,24.6,29.71,NNW,338,0.0,0.0,93,0.00,,,0.00,VWS V14.01,2014-01-18 05:42:00,
2014-01-18 00:47:00,26.3,24.6,29.71,NNW,338,0.0,0.0,93,0.00,,,0.00,VWS V14.01,2014-01-18 05:47:00,
2014-01-18 00:52:00,26.3,24.6,29.71,NNW,338,0.0,0.0,93,0.00,,,0.00,VWS V14.01,2014-01-18 05:52:00,
2014-01-18 00:57:00,26.3,24.6,29.71,NNW,338,0.0,0.0,93,0.00,,,0.00,VWS V14.01,2014-01-18 05:57:00,
2014-01-18 01:00:00,26.3,24.6,29.71,NNW,338,0.0,0.0,93,0.00,,,0.00,VWS V14.01,2014-01-18 06:00:00,
2014-01-18 01:02:00,26.3,24.6,29.71,NNW,338,0.0,0.0,93,0.00,,,0.00,VWS V14.01,2014-01-18 06:02:00,
2014-01-18 01:07:00,26.3,24.6,29.71,NNW,338,1.6,2.5,93,0.00,,,0.00,VWS V14.01,2014-01-18 06:07:00,
2014-01-18 01:12:00,26.3,24.6,29.71,NNW,338,1.6,2.2,93,0.00,,,0.00,VWS V14.01,2014-01-18 06:12:00,
2014-01-18 01:17:00,26.3,24.6,29.71,NNW,338,0.0,1.1,93,0.00,,,0.00,VWS V14.01,2014-01-18 06:17:00,
2014-01-18 01:22:00,26.3,24.6,29.71,NNW,338,2.5,2.5,93,0.00,,,0.00,VWS V14.01,2014-01-18 06:22:00,
2014-01-18 01:27:00,26.3,24.6,29.71,NNW,338,0.0,2.0,93,0.00,,,0.00,VWS V14.01,2014-01-18 06:27:00,
2014-01-18 01:30:00,26.3,24.6,29.71,NNW,338,2.7,2.7,93,0.00,,,0.00,VWS V14.01,2014-01-18 06:30:00,
2014-01-18 01:32:00,26.3,24.6,29.71,NNW,338,0.0,0.9,93,0.00,,,0.00,VWS V14.01,2014-01-18 06:32:00,
2014-01-18 01:37:00,26.3,24.6,29.71,NNW,338,0.0,0.0,93,0.00,,,0.00,VWS V14.01,2014-01-18 06:37:00,
2014-01-18 01:43:00,26.3,24.6,29.71,NNW,338,0.0,1.1,93,0.00,,,0.00,VWS V14.01,2014-01-18 06:43:00,
2014-01-18 01:48:00,26.3,24.6,29.71,NNW,338,0.9,1.3,93,0.00,,,0.00,VWS V14.01,2014-01-18 06:48:00,
2014-01-18 01:53:00,26.3,24.6,29.71,NNW,338,0.0,1.1,93,0.00,,,0.00,VWS V14.01,2014-01-18 06:53:00,
2014-01-18 01:58:00,26.3,24.6,29.71,NNW,338,0.0,1.1,93,0.00,,,0.00,VWS V14.01,2014-01-18 06:58:00,
2014-01-18 02:00:00,26.3,24.6,29.71,NNW,338,0.0,0.0,93,0.00,,,0.00,VWS V14.01,2014-01-18 07:00:00,
2014-01-18 02:03:00,26.3,24.6,29.74,NNW,338,1.3,2.2,93,0.00,,,0.00,VWS V14.01,2014-01-18 07:03:00,
2014-01-18 02:08:00,26.3,24.6,29.74,NNW,338,0.0,0.0,93,0.00,,,0.00,VWS V14.01,2014-01-18 07:08:00,
2014-01-18 02:13:00,26.3,24.6,29.74,NNW,338,0.0,1.3,93,0.00,,,0.00,VWS V14.01,2014-01-18 07:13:00,
2014-01-18 02:18:00,26.3,24.6,29.74,NNW,338,0.0,0.0,93,0.00,,,0.00,VWS V14.01,2014-01-18 07:18:00,
2014-01-18 02:23:00,26.3,24.6,29.74,NNW,338,0.0,0.0,93,0.00,,,0.00,VWS V14.01,2014-01-18 07:23:00,
2014-01-18 02:28:00,26.3,24.6,29.74,NNW,338,0.0,0.0,93,0.00,,,0.00,VWS V14.01,2014-01-18 07:28:00,
2014-01-18 02:30:00,26.3,24.6,29.74,NNW,338,0.0,0.0,93,0.00,,,0.00,VWS V14.01,2014-01-18 07:30:00,
2014-01-18 02:33:00,26.3,24.6,29.71,NNW,338,0.0,0.0,93,0.00,,,0.00,VWS V14.01,2014-01-18 07:33:00,
2014-01-18 02:38:00,26.3,24.6,29.71,NNW,338,1.6,2.2,93,0.00,,,0.00,VWS V14.01,2014-01-18 07:38:00,
2014-01-18 02:43:00,26.3,24.6,29.71,NNW,338,0.0,0.0,93,0.00,,,0.00,VWS V14.01,2014-01-18 07:43:00,
2014-01-18 02:48:00,26.3,24.6,29.71,NNW,338,0.0,0.0,93,0.00,,,0.00,VWS V14.01,2014-01-18 07:48:00,
2014-01-18 02:53:00,26.3,24.6,29.71,NNW,338,0.0,0.0,93,0.00,,,0.00,VWS V14.01,2014-01-18 07:53:00,
2014-01-18 02:58:00,26.3,24.6,29.71,NNW,338,1.3,1.3,93,0.00,,,0.00,VWS V14.01,2014-01-18 07:58:00,
2014-01-18 03:00:00,26.3,24.6,29.71,NNW,338,0.0,0.0,93,0.00,,,0.00,VWS V14.01,2014-01-18 08:00:00,
2014-01-18 03:03:00,26.3,24.6,29.71,NNW,338,2.0,2.9,93,0.00,,,0.00,VWS V14.01,2014-01-18 08:03:00,
2014-01-18 03:08:00,26.3,24.6,29.71,NNW,338,2.2,2.5,93,0.00,,,0.00,VWS V14.01,2014-01-18 08:08:00,
2014-01-18 03:13:00,26.3,24.6,29.71,NW,315,2.7,3.4,93,0.00,,,0.00,VWS V14.01,2014-01-18 08:13:00,
2014-01-18 03:18:00,26.3,24.6,29.71,NW,315,2.0,2.9,93,0.00,,,0.00,VWS V14.01,2014-01-18 08:18:00,
2014-01-18 03:23:00,26.3,24.6,29.71,NW,315,2.0,3.1,93,0.00,,,0.00,VWS V14.01,2014-01-18 08:23:00,
2014-01-18 03:28:00,26.3,24.6,29.71,NNW,338,2.0,2.7,93,0.00,,,0.00,VWS V14.01,2014-01-18 08:28:00,
2014-01-18 03:30:00,26.3,24.6,29.71,NW,315,2.2,2.5,93,0.00,,,0.00,VWS V14.01,2014-01-18 08:30:00,
2014-01-18 03:34:00,26.3,24.6,29.71,NNW,338,2.5,2.7,93,0.00,,,0.00,VWS V14.01,2014-01-18 08:34:00,
2014-01-18 03:39:00,26.3,24.6,29.71,NNW,338,1.3,1.6,93,0.00,,,0.00,VWS V14.01,2014-01-18 08:39:00,
2014-01-18 03:44:00,26.3,24.6,29.71,NNW,338,2.2,2.9,93,0.00,,,0.00,VWS V14.01,2014-01-18 08:44:00,
2014-01-18 03:49:00,26.3,24.6,29.71,NNW,338,2.9,3.1,93,0.00,,,0.00,VWS V14.01,2014-01-18 08:49:00,
2014-01-18 03:54:00,26.3,24.6,29.71,NNW,338,2.5,2.5,93,0.00,,,0.00,VWS V14.01,2014-01-18 08:54:00,
2014-01-18 03:59:00,26.3,24.6,29.71,NNW,338,2.5,2.5,93,0.00,,,0.00,VWS V14.01,2014-01-18 08:59:00,
2014-01-18 04:00:00,26.3,24.6,29.71,NNW,338,2.5,2.5,93,0.00,,,0.00,VWS V14.01,2014-01-18 09:00:00,
2014-01-18 04:04:00,26.3,24.6,29.71,NNW,338,2.2,2.5,93,0.00,,,0.00,VWS V14.01,2014-01-18 09:04:00,
2014-01-18 04:09:00,26.3,24.6,29.71,NNW,338,1.3,1.3,93,0.00,,,0.00,VWS V14.01,2014-01-18 09:09:00,
2014-01-18 04:14:00,26.3,24.6,29.71,NNW,338,1.3,2.0,93,0.00,,,0.00,VWS V14.01,2014-01-18 09:14:00,
2014-01-18 04:19:00,26.3,24.6,29.71,NNW,338,0.0,1.1,93,0.00,,,0.00,VWS V14.01,2014-01-18 09:19:00,
2014-01-18 04:24:00,26.3,24.6,29.71,NNW,338,0.0,1.1,93,0.00,,,0.00,VWS V14.01,2014-01-18 09:24:00,
2014-01-18 04:29:00,26.3,24.6,29.71,NNW,338,1.1,1.3,93,0.00,,,0.00,VWS V14.01,2014-01-18 09:29:00,
2014-01-18 04:30:00,26.3,24.6,29.71,NNW,338,0.0,1.1,93,0.00,,,0.00,VWS V14.01,2014-01-18 09:30:00,
2014-01-18 04:34:00,26.3,24.6,29.71,NNW,338,0.0,1.1,93,0.00,,,0.00,VWS V14.01,2014-01-18 09:34:00,
2014-01-18 04:39:00,26.3,24.6,29.71,NNW,338,1.6,2.2,93,0.00,,,0.00,VWS V14.01,2014-01-18 09:39:00,
2014-01-18 04:44:00,26.3,24.6,29.71,NNW,338,2.0,2.2,93,0.00,,,0.00,VWS V14.01,2014-01-18 09:44:00,
2014-01-18 04:49:00,26.3,24.6,29.71,NNW,338,2.0,2.2,93,0.00,,,0.00,VWS V14.01,2014-01-18 09:49:00,
2014-01-18 04:54:00,26.3,24.6,29.71,NNW,338,1.1,2.5,93,0.00,,,0.00,VWS V14.01,2014-01-18 09:54:00,
2014-01-18 05:00:00,26.3,24.6,29.71,NNW,338,1.1,1.3,93,0.00,,,0.00,VWS V14.01,2014-01-18 10:00:00,
2014-01-18 05:05:00,26.3,24.6,29.68,NNW,338,1.1,2.0,93,0.00,,,0.00,VWS V14.01,2014-01-18 10:05:00,
2014-01-18 05:10:00,26.3,24.6,29.68,NNW,338,0.0,0.0,93,0.00,,,0.00,VWS V14.01,2014-01-18 10:10:00,
2014-01-18 05:15:00,26.3,24.6,29.68,NNW,338,0.0,0.0,93,0.00,,,0.00,VWS V14.01,2014-01-18 10:15:00,
2014-01-18 05:20:00,26.3,24.6,29.71,NNW,338,0.0,0.0,93,0.00,,,0.00,VWS V14.01,2014-01-18 10:20:00,
2014-01-18 05:25:00,26.3,24.6,29.71,NNW,338,0.0,0.0,93,0.00,,,0.00,VWS V14.01,2014-01-18 10:25:00,
2014-01-18 05:30:00,26.3,24.6,29.71,NNW,338,0.0,0.0,93,0.00,,,0.00,VWS V14.01,2014-01-18 10:30:00,
2014-01-18 05:35:00,26.3,24.6,29.71,NNW,338,0.0,1.3,93,0.00,,,0.00,VWS V14.01,2014-01-18 10:35:00,
2014-01-18 05:40:00,26.3,24.6,29.71,NNW,338,0.0,2.0,93,0.00,,,0.00,VWS V14.01,2014-01-18 10:40:00,
2014-01-18 05:45:00,26.3,24.6,29.71,NNW,338,1.6,2.0,93,0.00,,,0.00,VWS V14.01,2014-01-18 10:45:00,
2014-01-18 05:50:00,26.3,24.6,29.71,NNW,338,2.0,2.0,93,0.00,,,0.00,VWS V14.01,2014-01-18 10:50:00,
2014-01-18 05:55:00,26.3,24.6,29.71,NNW,338,2.5,2.5,93,0.00,,,0.00,VWS V14.01,2014-01-18 10:55:00,
2014-01-18 06:00:00,26.3,24.6,29.71,NNW,338,1.3,2.0,93,0.00,,,0.00,VWS V14.01,2014-01-18 11:00:00,
2014-01-18 06:05:00,26.3,24.6,29.71,NNW,338,0.0,2.5,93,0.00,,,0.00,VWS V14.01,2014-01-18 11:05:00,
2014-01-18 06:10:00,26.3,24.6,29.71,NNW,338,1.3,1.6,93,0.00,,,0.00,VWS V14.01,2014-01-18 11:10:00,
2014-01-18 06:15:00,26.3,24.6,29.71,NNW,338,1.1,2.0,93,0.00,,,0.00,VWS V14.01,2014-01-18 11:15:00,
2014-01-18 06:20:00,26.3,24.6,29.71,NNW,338,0.0,0.0,93,0.00,,,0.00,VWS V14.01,2014-01-18 11:20:00,
2014-01-18 06:25:00,26.3,24.6,29.71,NNW,338,0.0,0.0,93,0.00,,,0.00,VWS V14.01,2014-01-18 11:25:00,
2014-01-18 06:30:00,26.3,24.6,29.71,NNW,338,0.0,0.0,93,0.00,,,0.00,VWS V14.01,2014-01-18 11:30:00,
2014-01-18 06:35:00,26.3,24.6,29.68,NNW,338,0.0,0.0,93,0.00,,,0.00,VWS V14.01,2014-01-18 11:35:00,
2014-01-18 06:40:00,26.3,24.6,29.68,NNW,338,0.0,0.0,93,0.00,,,0.00,VWS V14.01,2014-01-18 11:40:00,
2014-01-18 06:46:00,26.3,24.6,29.68,NNW,338,0.0,0.0,93,0.00,,,0.00,VWS V14.01,2014-01-18 11:46:00,
2014-01-18 06:51:00,26.3,24.6,29.68,NNW,338,0.0,0.0,93,0.00,,,0.00,VWS V14.01,2014-01-18 11:51:00,
2014-01-18 06:56:00,26.3,24.6,29.68,NNW,338,1.6,2.0,93,0.00,,,0.00,VWS V14.01,2014-01-18 11:56:00,
2014-01-18 07:00:00,26.3,24.6,29.68,NNW,338,0.0,0.0,93,0.00,,,0.00,VWS V14.01,2014-01-18 12:00:00,
2014-01-18 07:01:00,26.3,24.6,29.71,NNW,338,0.0,0.0,93,0.00,,,0.00,VWS V14.01,2014-01-18 12:01:00,
2014-01-18 07:06:00,26.3,24.6,29.71,NNW,338,1.1,1.6,93,0.00,,,0.00,VWS V14.01,2014-01-18 12:06:00,
2014-01-18 07:11:00,26.3,24.6,29.71,NNW,338,1.3,2.0,93,0.00,,,0.00,VWS V14.01,2014-01-18 12:11:00,
2014-01-18 07:16:00,26.3,24.6,29.68,NNW,338,0.0,1.3,93,0.00,,,0.00,VWS V14.01,2014-01-18 12:16:00,
2014-01-18 07:21:00,26.3,24.6,29.68,NNW,338,1.3,1.3,93,0.00,,,0.00,VWS V14.01,2014-01-18 12:21:00,
2014-01-18 07:26:00,26.3,24.6,29.68,NNW,338,1.3,1.3,93,0.00,,,0.00,VWS V14.01,2014-01-18 12:26:00,
2014-01-18 07:30:00,26.3,24.6,29.68,NNW,338,0.0,0.0,93,0.00,,,0.00,VWS V14.01,2014-01-18 12:30:00,
2014-01-18 07:31:00,26.3,24.6,29.68,NNW,338,2.2,2.5,93,0.00,,,0.00,VWS V14.01,2014-01-18 12:31:00,
2014-01-18 07:36:00,26.3,24.6,29.68,NNW,338,0.0,2.0,93,0.00,,,0.00,VWS V14.01,2014-01-18 12:36:00,
2014-01-18 07:41:00,26.3,24.6,29.68,NNW,338,0.0,0.0,93,0.00,,,0.00,VWS V14.01,2014-01-18 12:41:00,
2014-01-18 07:46:00,26.3,24.6,29.68,NNW,338,1.6,2.0,93,0.00,,,0.00,VWS V14.01,2014-01-18 12:46:00,
2014-01-18 07:51:00,26.3,24.6,29.68,NNW,338,1.3,1.6,93,0.00,,,0.00,VWS V14.01,2014-01-18 12:51:00,
2014-01-18 07:56:00,26.3,24.6,29.68,NNW,338,0.0,0.0,93,0.00,,,0.00,VWS V14.01,2014-01-18 12:56:00,
2014-01-18 08:01:00,26.3,24.6,29.68,NNW,338,0.0,0.0,93,0.00,,,0.00,VWS V14.01,2014-01-18 13:01:00,
2014-01-18 08:06:00,26.3,24.6,29.68,NNW,338,0.0,0.0,93,0.00,,,0.00,VWS V14.01,2014-01-18 13:06:00,
2014-01-18 08:11:00,26.3,24.6,29.68,NNW,338,0.0,0.0,93,0.00,,,0.00,VWS V14.01,2014-01-18 13:11:00,
2014-01-18 08:16:00,26.3,24.6,29.68,NNW,338,0.0,0.0,93,0.00,,,0.00,VWS V14.01,2014-01-18 13:16:00,
2014-01-18 08:21:00,26.3,24.6,29.68,NNW,338,0.0,0.0,93,0.00,,,0.00,VWS V14.01,2014-01-18 13:21:00,
2014-01-18 08:26:00,26.3,24.6,29.68,NNW,338,0.0,0.0,93,0.00,,,0.00,VWS V14.01,2014-01-18 13:26:00,
2014-01-18 08:30:00,26.3,24.6,29.68,NNW,338,0.0,0.0,93,0.00,,,0.00,VWS V14.01,2014-01-18 13:30:00,
2014-01-18 08:31:00,26.3,24.6,29.68,NNW,338,0.0,0.0,93,0.00,,,0.00,VWS V14.01,2014-01-18 13:31:00,
2014-01-18 08:36:00,26.3,24.6,29.68,NNW,338,0.0,0.0,93,0.00,,,0.00,VWS V14.01,2014-01-18 13:36:00,
2014-01-18 08:41:00,26.3,24.6,29.68,NNW,338,0.0,0.0,93,0.00,,,0.00,VWS V14.01,2014-01-18 13:41:00,
2014-01-18 08:46:00,26.3,24.6,29.68,NNW,338,0.0,0.0,93,0.00,,,0.00,VWS V14.01,2014-01-18 13:46:00,
2014-01-18 08:51:00,26.3,24.6,29.68,NNW,338,2.0,2.5,93,0.00,,,0.00,VWS V14.01,2014-01-18 13:51:00,
2014-01-18 08:56:00,26.3,24.6,29.68,NNW,338,0.0,0.9,93,0.00,,,0.00,VWS V14.01,2014-01-18 13:56:00,
2014-01-18 09:00:00,26.3,24.6,29.68,NNW,338,1.1,1.3,93,0.00,,,0.00,VWS V14.01,2014-01-18 14:00:00,
2014-01-18 09:01:00,26.3,24.6,29.68,NNW,338,0.0,0.0,93,0.00,,,0.00,VWS V14.01,2014-01-18 14:01:00,
2014-01-18 09:06:00,26.3,24.6,29.68,NNW,338,0.0,1.6,93,0.00,,,0.00,VWS V14.01,2014-01-18 14:06:00,
2014-01-18 09:11:00,26.3,24.6,29.68,NNW,338,0.0,0.0,93,0.00,,,0.00,VWS V14.01,2014-01-18 14:11:00,
2014-01-18 09:16:00,26.3,24.6,29.68,NNW,338,0.0,0.0,93,0.00,,,0.00,VWS V14.01,2014-01-18 14:16:00,
2014-01-18 09:21:00,26.3,24.6,29.68,NNW,338,0.0,0.0,93,0.00,,,0.00,VWS V14.01,2014-01-18 14:21:00,
2014-01-18 09:26:00,26.3,24.6,29.68,NNW,338,0.0,0.0,93,0.00,,,0.00,VWS V14.01,2014-01-18 14:26:00,
2014-01-18 09:30:00,26.3,24.6,29.68,NNW,338,0.0,0.0,93,0.00,,,0.00,VWS V14.01,2014-01-18 14:30:00,
2014-01-18 09:31:00,26.3,24.6,29.65,NNW,338,0.0,0.0,93,0.00,,,0.00,VWS V14.01,2014-01-18 14:31:00,
2014-01-18 09:36:00,26.3,24.6,29.65,NNW,338,1.6,2.0,93,0.00,,,0.00,VWS V14.01,2014-01-18 14:36:00,
2014-01-18 09:41:00,26.3,24.6,29.65,NNW,338,2.5,2.7,93,0.00,,,0.00,VWS V14.01,2014-01-18 14:41:00,
2014-01-18 09:46:00,26.3,24.6,29.68,NNW,338,2.5,2.7,93,0.00,,,0.00,VWS V14.01,2014-01-18 14:46:00,
2014-01-18 09:51:00,26.3,24.6,29.68,NNW,338,1.1,2.0,93,0.00,,,0.00,VWS V14.01,2014-01-18 14:51:00,
2014-01-18 09:56:00,26.3,24.6,29.68,NNW,338,0.0,0.0,93,0.00,,,0.00,VWS V14.01,2014-01-18 14:56:00,
2014-01-18 10:00:00,26.3,24.6,29.68,NNW,338,0.0,0.0,93,0.00,,,0.00,VWS V14.01,2014-01-18 15:00:00,
2014-01-18 10:01:00,26.3,24.6,29.65,NNW,338,0.0,0.0,93,0.00,,,0.00,VWS V14.01,2014-01-18 15:01:00,
2014-01-18 10:06:00,26.3,24.6,29.65,NNW,338,0.0,0.0,93,0.00,,,0.00,VWS V14.01,2014-01-18 15:06:00,
2014-01-18 10:12:00,26.3,24.6,29.65,NNW,338,1.6,1.6,93,0.00,,,0.00,VWS V14.01,2014-01-18 15:12:00,
2014-01-18 10:16:00,26.3,24.6,29.68,NNW,338,0.9,1.1,93,0.00,,,0.00,VWS V14.01,2014-01-18 15:16:00,
2014-01-18 10:22:00,26.3,24.6,29.68,NNW,338,2.0,2.0,93,0.00,,,0.00,VWS V14.01,2014-01-18 15:22:00,
2014-01-18 10:27:00,26.3,24.6,29.68,NNW,338,0.0,0.0,93,0.00,,,0.00,VWS V14.01,2014-01-18 15:27:00,
2014-01-18 10:30:00,26.3,24.6,29.68,NNW,338,0.0,2.0,93,0.00,,,0.00,VWS V14.01,2014-01-18 15:30:00,
2014-01-18 10:32:00,26.3,24.6,29.65,NNW,338,0.0,0.0,93,0.00,,,0.00,VWS V14.01,2014-01-18 15:32:00,
2014-01-18 10:37:00,26.3,24.6,29.65,NNW,338,2.5,2.5,93,0.00,,,0.00,VWS V14.01,2014-01-18 15:37:00,
2014-01-18 10:42:00,26.3,24.6,29.65,NNW,338,1.6,2.5,93,0.00,,,0.00,VWS V14.01,2014-01-18 15:42:00,
2014-01-18 10:47:00,26.3,24.6,29.65,NNW,338,1.6,2.0,93,0.00,,,0.00,VWS V14.01,2014-01-18 15:47:00,
2014-01-18 10:52:00,26.3,24.6,29.65,NNW,338,2.0,2.0,93,0.00,,,0.00,VWS V14.01,2014-01-18 15:52:00,
2014-01-18 10:57:00,26.3,24.6,29.65,NNW,338,2.2,2.2,93,0.00,,,0.00,VWS V14.01,2014-01-18 15:57:00,
2014-01-18 11:00:00,26.3,24.6,29.65,NNW,338,2.5,2.5,93,0.00,,,0.00,VWS V14.01,2014-01-18 16:00:00,
2014-01-18 11:02:00,26.3,24.6,29.62,NNW,338,2.2,2.5,93,0.00,,,0.00,VWS V14.01,2014-01-18 16:02:00,
2014-01-18 11:07:00,26.3,24.6,29.62,NNW,338,2.9,3.1,93,0.00,,,0.00,VWS V14.01,2014-01-18 16:07:00,
2014-01-18 11:12:00,26.3,24.6,29.62,NNW,338,2.7,3.1,93,0.00,,,0.00,VWS V14.01,2014-01-18 16:12:00,
2014-01-18 11:17:00,26.3,24.6,29.62,NNW,338,0.0,1.6,93,0.00,,,0.00,VWS V14.01,2014-01-18 16:17:00,
2014-01-18 11:22:00,26.3,24.6,29.62,NNW,338,0.0,0.0,93,0.00,,,0.00,VWS V14.01,2014-01-18 16:22:00,
2014-01-18 11:27:00,26.3,24.6,29.62,NNW,338,0.0,0.0,93,0.00,,,0.00,VWS V14.01,2014-01-18 16:27:00,
2014-01-18 11:30:00,26.3,24.6,29.62,NNW,338,0.0,0.0,93,0.00,,,0.00,VWS V14.01,2014-01-18 16:30:00,
2014-01-18 11:32:00,26.3,24.6,29.62,NNW,338,0.0,0.0,93,0.00,,,0.00,VWS V14.01,2014-01-18 16:32:00,
2014-01-18 11:37:00,26.3,24.6,29.62,NNW,338,2.9,2.9,93,0.00,,,0.00,VWS V14.01,2014-01-18 16:37:00,
2014-01-18 11:42:00,26.3,24.6,29.62,NNW,338,2.9,2.9,93,0.00,,,0.00,VWS V14.01,2014-01-18 16:42:00,
2014-01-18 11:47:00,26.3,24.6,29.62,NNW,338,0.0,0.0,93,0.00,,,0.00,VWS V14.01,2014-01-18 16:47:00,
2014-01-18 11:52:00,26.3,24.6,29.62,NNW,338,0.0,0.0,93,0.00,,,0.00,VWS V14.01,2014-01-18 16:52:00,
2014-01-18 11:57:00,26.3,24.6,29.62,NNW,338,0.0,0.0,93,0.00,,,0.00,VWS V14.01,2014-01-18 16:57:00,
2014-01-18 12:00:00,26.3,24.6,29.62,NNW,338,0.0,0.0,93,0.00,,,0.00,VWS V14.01,2014-01-18 17:00:00,
2014-01-18 12:02:00,26.3,24.6,29.59,NNW,338,0.0,0.0,93,0.00,,,0.00,VWS V14.01,2014-01-18 17:02:00,
2014-01-18 12:07:00,26.3,24.6,29.59,NNW,338,2.0,2.5,93,0.00,,,0.00,VWS V14.01,2014-01-18 17:07:00,
2014-01-18 12:12:00,26.3,24.6,29.59,NNW,338,0.0,0.0,93,0.00,,,0.00,VWS V14.01,2014-01-18 17:12:00,
2014-01-18 12:15:00,26.3,24.6,29.59,NNW,338,0.0,0.0,93,0.00,,,0.00,VWS V14.01,2014-01-18 17:15:00,
2014-01-18 12:20:00,26.3,24.6,29.56,NNW,338,0.0,0.0,93,0.00,,,0.00,VWS V14.01,2014-01-18 17:20:00,
2014-01-18 12:26:00,26.3,24.6,29.56,NNW,338,1.3,1.3,93,0.00,,,0.00,VWS V14.01,2014-01-18 17:26:00,
2014-01-18 12:30:00,26.3,24.6,29.56,NNW,338,0.0,0.0,93,0.00,,,0.00,VWS V14.01,2014-01-18 17:30:00,
2014-01-18 12:31:00,26.3,24.6,29.56,NNW,338,1.6,1.6,93,0.00,,,0.00,VWS V14.01,2014-01-18 17:31:00,
2014-01-18 12:36:00,26.3,24.6,29.56,NNW,338,2.0,2.0,93,0.00,,,0.00,VWS V14.01,2014-01-18 17:36:00,
2014-01-18 12:41:00,26.3,24.6,29.56,NNW,338,2.7,2.7,93,0.00,,,0.00,VWS V14.01,2014-01-18 17:41:00,
2014-01-18 12:46:00,26.3,24.6,29.56,NNW,338,2.2,2.7,93,0.00,,,0.00,VWS V14.01,2014-01-18 17:46:00,
2014-01-18 12:51:00,26.3,24.6,29.56,NNW,338,2.5,2.9,93,0.00,,,0.00,VWS V14.01,2014-01-18 17:51:00,
2014-01-18 12:56:00,26.3,24.6,29.56,NNW,338,2.2,2.5,93,0.00,,,0.00,VWS V14.01,2014-01-18 17:56:00,
2014-01-18 13:00:00,26.3,24.6,29.56,NNW,338,1.3,2.7,93,0.00,,,0.00,VWS V14.01,2014-01-18 18:00:00,
2014-01-18 13:01:00,26.3,24.6,29.56,NNW,338,0.0,0.0,93,0.00,,,0.00,VWS V14.01,2014-01-18 18:01:00,
2014-01-18 13:06:00,26.3,24.6,29.56,NNW,338,0.0,0.0,93,0.00,,,0.00,VWS V14.01,2014-01-18 18:06:00,
2014-01-18 13:11:00,26.3,24.6,29.56,NNW,338,0.0,0.0,93,0.00,,,0.00,VWS V14.01,2014-01-18 18:11:00,
2014-01-18 13:16:00,26.3,24.6,29.56,NNW,338,2.2,2.9,93,0.00,,,0.00,VWS V14.01,2014-01-18 18:16:00,
2014-01-18 13:21:00,26.3,24.6,29.56,NNW,338,1.3,2.2,93,0.00,,,0.00,VWS V14.01,2014-01-18 18:21:00,
2014-01-18 13:26:00,26.3,24.6,29.56,NNW,338,1.6,2.2,93,0.00,,,0.00,VWS V14.01,2014-01-18 18:26:00,
2014-01-18 13:30:00,26.3,24.6,29.56,NNW,338,2.2,2.2,93,0.00,,,0.00,VWS V14.01,2014-01-18 18:30:00,
2014-01-18 13:31:00,26.3,24.6,29.56,NNW,338,0.0,0.0,93,0.00,,,0.00,VWS V14.01,2014-01-18 18:31:00,
2014-01-18 13:36:00,26.3,24.6,29.56,NNW,338,0.0,1.3,93,0.00,,,0.00,VWS V14.01,2014-01-18 18:36:00,
2014-01-18 13:41:00,26.3,24.6,29.56,NNW,338,0.0,2.0,93,0.00,,,0.00,VWS V14.01,2014-01-18 18:41:00,
2014-01-18 13:46:00,26.3,24.6,29.56,NNW,338,3.4,3.4,93,0.00,,,0.00,VWS V14.01,2014-01-18 18:46:00,
2014-01-18 13:51:00,26.3,24.6,29.56,NNW,338,0.9,2.7,93,0.00,,,0.00,VWS V14.01,2014-01-18 18:51:00,
2014-01-18 13:56:00,26.3,24.6,29.56,NNW,338,0.0,0.0,93,0.00,,,0.00,VWS V14.01,2014-01-18 18:56:00,
2014-01-18 14:00:00,26.3,24.6,29.56,NNW,338,0.0,0.0,93,0.00,,,0.00,VWS V14.01,2014-01-18 19:00:00,
2014-01-18 14:01:00,26.3,24.6,29.56,NNW,338,1.1,2.2,93,0.00,,,0.00,VWS V14.01,2014-01-18 19:01:00,
2014-01-18 14:06:00,26.3,24.6,29.56,NNW,338,1.1,1.3,93,0.00,,,0.00,VWS V14.01,2014-01-18 19:06:00,
2014-01-18 14:11:00,26.3,24.6,29.56,NNW,338,1.1,2.0,93,0.00,,,0.00,VWS V14.01,2014-01-18 19:11:00,
2014-01-18 14:16:00,26.3,24.6,29.56,NNW,338,1.1,1.1,93,0.00,,,0.00,VWS V14.01,2014-01-18 19:16:00,
2014-01-18 14:21:00,26.3,24.6,29.56,ESE,112,3.1,3.4,93,0.00,,,0.00,VWS V14.01,2014-01-18 19:21:00,
2014-01-18 14:26:00,26.3,24.6,29.56,SSW,202,1.1,1.6,93,0.00,,,0.00,VWS V14.01,2014-01-18 19:26:00,
2014-01-18 14:30:00,26.3,24.6,29.56,ENE,68,3.1,4.9,93,0.00,,,0.00,VWS V14.01,2014-01-18 19:30:00,
2014-01-18 14:31:00,26.3,24.6,29.53,SSW,202,2.5,2.9,93,0.00,,,0.00,VWS V14.01,2014-01-18 19:31:00,
2014-01-18 14:36:00,26.3,24.6,29.53,SSE,158,3.8,3.8,93,0.00,,,0.00,VWS V14.01,2014-01-18 19:36:00,
2014-01-18 14:41:00,26.3,24.6,29.53,SSW,202,1.3,2.7,93,0.00,,,0.00,VWS V14.01,2014-01-18 19:41:00,
2014-01-18 14:46:00,26.3,24.6,29.56,SSW,202,0.0,2.9,93,0.00,,,0.00,VWS V14.01,2014-01-18 19:46:00,
2014-01-18 14:51:00,26.3,24.6,29.56,South,180,1.1,3.4,93,0.00,,,0.00,VWS V14.01,2014-01-18 19:51:00,
2014-01-18 14:56:00,26.3,24.6,29.56,SSE,158,1.6,3.6,93,0.00,,,0.00,VWS V14.01,2014-01-18 19:56:00,
2014-01-18 15:00:00,26.3,24.6,29.56,South,180,1.1,1.1,93,0.00,,,0.00,VWS V14.01,2014-01-18 20:00:00,
2014-01-18 15:01:00,26.3,24.6,29.53,SSW,202,1.6,1.6,93,0.00,,,0.00,VWS V14.01,2014-01-18 20:01:00,
2014-01-18 15:06:00,26.3,24.6,29.53,East,90,3.4,3.4,93,0.00,,,0.00,VWS V14.01,2014-01-18 20:06:00,
2014-01-18 15:11:00,26.3,24.6,29.53,East,90,1.3,3.8,93,0.00,,,0.00,VWS V14.01,2014-01-18 20:11:00,
2014-01-18 15:16:00,26.3,24.6,29.50,East,90,1.6,2.7,93,0.00,,,0.00,VWS V14.01,2014-01-18 20:16:00,
2014-01-18 15:21:00,26.3,24.6,29.50,SSW,202,2.5,2.5,93,0.00,,,0.00,VWS V14.01,2014-01-18 20:21:00,
2014-01-18 15:26:00,26.3,24.6,29.50,SSW,202,1.6,2.2,93,0.00,,,0.00,VWS V14.01,2014-01-18 20:26:00,
2014-01-18 15:30:00,26.3,24.6,29.50,SSW,202,0.9,2.5,93,0.00,,,0.00,VWS V14.01,2014-01-18 20:30:00,
2014-01-18 15:31:00,26.3,24.6,29.50,SSW,202,2.2,2.2,93,0.00,,,0.00,VWS V14.01,2014-01-18 20:31:00,
2014-01-18 15:36:00,26.3,24.6,29.50,SSW,202,1.6,2.2,93,0.00,,,0.00,VWS V14.01,2014-01-18 20:36:00,
2014-01-18 15:41:00,26.3,24.6,29.50,East,90,0.0,0.0,93,0.00,,,0.00,VWS V14.01,2014-01-18 20:41:00,
2014-01-18 15:46:00,26.3,24.6,29.50,ESE,112,0.0,0.9,93,0.00,,,0.00,VWS V14.01,2014-01-18 20:46:00,
2014-01-18 15:51:00,26.3,24.6,29.50,SSE,158,0.0,0.0,93,0.00,,,0.00,VWS V14.01,2014-01-18 20:51:00,
2014-01-18 15:56:00,26.3,24.6,29.50,SSE,158,1.1,1.1,93,0.00,,,0.00,VWS V14.01,2014-01-18 20:56:00,
2014-01-18 16:00:00,26.3,24.6,29.50,SSE,158,0.0,0.9,93,0.00,,,0.00,VWS V14.01,2014-01-18 21:00:00,
2014-01-18 16:01:00,26.3,24.6,29.50,SSE,158,1.6,1.6,93,0.00,,,0.00,VWS V14.01,2014-01-18 21:01:00,
2014-01-18 16:06:00,26.3,24.6,29.50,SSE,158,2.5,2.5,93,0.00,,,0.00,VWS V14.01,2014-01-18 21:06:00,
2014-01-18 16:11:00,26.3,24.6,29.50,SSE,158,0.0,0.0,93,0.00,,,0.00,VWS V14.01,2014-01-18 21:11:00,
2014-01-18 16:16:00,26.3,24.6,29.50,SSE,158,0.0,2.7,93,0.00,,,0.00,VWS V14.01,2014-01-18 21:16:00,
2014-01-18 16:21:00,26.3,24.6,29.50,SE,135,1.3,2.2,93,0.00,,,0.00,VWS V14.01,2014-01-18 21:21:00,
2014-01-18 16:27:00,26.3,24.6,29.50,South,180,0.0,2.7,93,0.00,,,0.00,VWS V14.01,2014-01-18 21:27:00,
2014-01-18 16:30:00,26.3,24.6,29.50,ESE,112,0.0,2.7,93,0.00,,,0.00,VWS V14.01,2014-01-18 21:30:00,
2014-01-18 16:32:00,26.3,24.6,29.50,ESE,112,0.0,2.7,93,0.00,,,0.00,VWS V14.01,2014-01-18 21:32:00,
2014-01-18 16:37:00,26.3,24.6,29.50,SE,135,2.0,2.5,93,0.00,,,0.00,VWS V14.01,2014-01-18 21:37:00,
2014-01-18 16:42:00,26.3,24.6,29.50,SE,135,0.0,0.0,93,0.00,,,0.00,VWS V14.01,2014-01-18 21:42:00,
2014-01-18 16:47:00,26.3,24.6,29.50,SSE,158,1.3,1.6,93,0.00,,,0.00,VWS V14.01,2014-01-18 21:47:00,
2014-01-18 16:52:00,26.3,24.6,29.50,SSE,158,0.0,0.0,93,0.00,,,0.00,VWS V14.01,2014-01-18 21:52:00,
2014-01-18 16:57:00,26.3,24.6,29.50,SSW,202,2.0,2.5,93,0.00,,,0.00,VWS V14.01,2014-01-18 21:57:00,
2014-01-18 17:00:00,26.3,24.6,29.50,SSE,158,0.0,0.0,93,0.00,,,0.00,VWS V14.01,2014-01-18 22:00:00,
2014-01-18 17:02:00,26.3,24.6,29.50,WNW,292,1.1,2.5,93,0.00,,,0.00,VWS V14.01,2014-01-18 22:02:00,
2014-01-18 17:07:00,26.3,24.6,29.50,NW,315,2.0,2.2,93,0.00,,,0.00,VWS V14.01,2014-01-18 22:07:00,
2014-01-18 17:12:00,26.3,24.6,29.50,NW,315,2.0,2.7,93,0.00,,,0.00,VWS V14.01,2014-01-18 22:12:00,
2014-01-18 17:17:00,26.3,24.6,29.50,NW,315,2.9,3.1,93,0.00,,,0.00,VWS V14.01,2014-01-18 22:17:00,
2014-01-18 17:22:00,26.3,24.6,29.50,NNW,338,2.2,2.9,93,0.00,,,0.00,VWS V14.01,2014-01-18 22:22:00,
2014-01-18 17:27:00,26.3,24.6,29.50,NW,315,2.0,2.7,93,0.00,,,0.00,VWS V14.01,2014-01-18 22:27:00,
2014-01-18 17:32:00,26.3,24.6,29.50,NNW,338,1.1,3.1,93,0.00,,,0.00,VWS V14.01,2014-01-18 22:32:00,
2014-01-18 17:37:00,26.3,24.6,29.50,NNW,338,2.7,2.7,93,0.00,,,0.00,VWS V14.01,2014-01-18 22:37:00,
2014-01-18 17:42:00,26.3,24.6,29.50,NNW,338,2.7,3.1,93,0.00,,,0.00,VWS V14.01,2014-01-18 22:42:00,
2014-01-18 17:47:00,26.3,24.6,29.50,NW,315,2.7,3.4,93,0.00,,,0.00,VWS V14.01,2014-01-18 22:47:00,
2014-01-18 17:52:00,26.3,24.6,29.50,NNW,338,2.9,4.3,93,0.00,,,0.00,VWS V14.01,2014-01-18 22:52:00,
2014-01-18 17:57:00,26.3,24.6,29.50,NNW,338,2.9,3.1,93,0.00,,,0.00,VWS V14.01,2014-01-18 22:57:00,
2014-01-18 18:00:00,26.3,24.6,29.50,NNW,338,2.7,2.9,93,0.00,,,0.00,VWS V14.01,2014-01-18 23:00:00,
2014-01-18 18:02:00,26.3,24.6,29.47,NNW,338,2.7,3.6,93,0.00,,,0.00,VWS V14.01,2014-01-18 23:02:00,
2014-01-18 18:07:00,26.3,24.6,29.47,NNW,338,2.5,2.7,93,0.00,,,0.00,VWS V14.01,2014-01-18 23:07:00,
2014-01-18 18:12:00,26.3,24.6,29.47,NNW,338,2.2,2.2,93,0.00,,,0.00,VWS V14.01,2014-01-18 23:12:00,
2014-01-18 18:17:00,26.3,24.6,29.50,NNW,338,3.1,3.1,93,0.00,,,0.00,VWS V14.01,2014-01-18 23:17:00,
2014-01-18 18:22:00,26.3,24.6,29.50,NNW,338,2.2,3.4,93,0.00,,,0.00,VWS V14.01,2014-01-18 23:22:00,
2014-01-18 18:28:00,26.3,24.6,29.50,NNW,338,1.6,2.9,93,0.00,,,0.00,VWS V14.01,2014-01-18 23:28:00,
2014-01-18 18:30:00,26.3,24.6,29.50,NNW,338,2.2,3.4,93,0.00,,,0.00,VWS V14.01,2014-01-18 23:30:00,
2014-01-18 18:33:00,26.3,24.6,29.50,NNW,338,1.6,2.9,93,0.00,,,0.00,VWS V14.01,2014-01-18 23:33:00,
2014-01-18 18:38:00,26.3,24.6,29.50,NNW,338,1.6,2.7,93,0.00,,,0.00,VWS V14.01,2014-01-18 23:38:00,
2014-01-18 18:43:00,26.3,24.6,29.50,NNW,338,2.2,2.7,93,0.00,,,0.00,VWS V14.01,2014-01-18 23:43:00,
2014-01-18 18:48:00,26.3,24.6,29.47,NNW,338,2.5,2.7,93,0.00,,,0.00,VWS V14.01,2014-01-18 23:48:00,
2014-01-18 18:53:00,26.3,24.6,29.47,NNW,338,1.3,2.5,93,0.00,,,0.00,VWS V14.01,2014-01-18 23:53:00,
2014-01-18 18:58:00,26.3,24.6,29.47,NNW,338,2.9,3.1,93,0.00,,,0.00,VWS V14.01,2014-01-18 23:58:00,
2014-01-18 19:00:00,26.3,24.6,29.47,NNW,338,2.0,2.5,93,0.00,,,0.00,VWS V14.01,2014-01-19 00:00:00,
2014-01-18 19:03:00,26.3,24.6,29.47,NNW,338,2.7,3.4,93,0.00,,,0.00,VWS V14.01,2014-01-19 00:03:00,
2014-01-18 19:08:00,26.3,24.6,29.47,NNW,338,3.4,3.4,93,0.00,,,0.00,VWS V14.01,2014-01-19 00:08:00,
2014-01-18 19:13:00,26.3,24.6,29.47,NNW,338,2.0,2.9,93,0.00,,,0.00,VWS V14.01,2014-01-19 00:13:00,
2014-01-18 19:18:00,26.3,24.6,29.47,NNW,338,3.1,3.1,93,0.00,,,0.00,VWS V14.01,2014-01-19 00:18:00,
2014-01-18 19:23:00,26.3,24.6,29.47,NNW,338,2.2,2.9,93,0.00,,,0.00,VWS V14.01,2014-01-19 00:23:00,
2014-01-18 19:28:00,26.3,24.6,29.47,NNW,338,2.5,2.9,93,0.00,,,0.00,VWS V14.01,2014-01-19 00:28:00,
2014-01-18 19:30:00,26.3,24.6,29.47,NNW,338,3.1,3.1,93,0.00,,,0.00,VWS V14.01,2014-01-19 00:30:00,
2014-01-18 19:33:00,26.3,24.6,29.47,NNW,338,2.9,3.8,93,0.00,,,0.00,VWS V14.01,2014-01-19 00:33:00,
2014-01-18 19:38:00,26.3,24.6,29.47,NNW,338,1.3,2.9,93,0.00,,,0.00,VWS V14.01,2014-01-19 00:38:00,
2014-01-18 19:43:00,26.3,24.6,29.47,NNW,338,2.0,2.9,93,0.00,,,0.00,VWS V14.01,2014-01-19 00:43:00,
2014-01-18 19:48:00,26.3,24.6,29.47,NNW,338,1.3,3.6,93,0.00,,,0.00,VWS V14.01,2014-01-19 00:48:00,
2014-01-18 19:53:00,26.3,24.6,29.47,NNW,338,2.5,2.7,93,0.00,,,0.00,VWS V14.01,2014-01-19 00:53:00,
2014-01-18 19:58:00,26.3,24.6,29.47,NNW,338,2.9,3.8,93,0.00,,,0.00,VWS V14.01,2014-01-19 00:58:00,
2014-01-18 20:00:00,26.3,24.6,29.47,NNW,338,2.5,2.7,93,0.00,,,0.00,VWS V14.01,2014-01-19 01:00:00,
2014-01-18 20:03:00,26.3,24.6,29.47,NNW,338,2.5,2.9,93,0.00,,,0.00,VWS V14.01,2014-01-19 01:03:00,
2014-01-18 20:08:00,26.3,24.6,29.47,NNW,338,3.8,3.8,93,0.00,,,0.00,VWS V14.01,2014-01-19 01:08:00,
2014-01-18 20:13:00,26.3,24.6,29.47,NNW,338,2.0,4.0,93,0.00,,,0.00,VWS V14.01,2014-01-19 01:13:00,
2014-01-18 20:18:00,26.3,24.6,29.47,NNW,338,3.4,3.4,93,0.00,,,0.00,VWS V14.01,2014-01-19 01:18:00,
2014-01-18 20:23:00,26.3,24.6,29.47,NNW,338,2.5,3.1,93,0.00,,,0.00,VWS V14.01,2014-01-19 01:23:00,
2014-01-18 20:28:00,26.3,24.6,29.47,NW,315,3.4,3.4,93,0.00,,,0.00,VWS V14.01,2014-01-19 01:28:00,
2014-01-18 20:30:00,26.3,24.6,29.47,NNW,338,2.2,2.9,93,0.00,,,0.00,VWS V14.01,2014-01-19 01:30:00,
2014-01-18 20:33:00,26.3,24.6,29.47,NNW,338,2.5,4.0,93,0.00,,,0.00,VWS V14.01,2014-01-19 01:33:00,
2014-01-18 20:38:00,26.3,24.6,29.47,NNW,338,2.5,4.5,93,0.00,,,0.00,VWS V14.01,2014-01-19 01:38:00,
2014-01-18 20:43:00,26.3,24.6,29.47,NNW,338,1.6,2.9,93,0.00,,,0.00,VWS V14.01,2014-01-19 01:43:00,
2014-01-18 20:48:00,26.3,24.6,29.44,NNW,338,2.7,2.7,93,0.00,,,0.00,VWS V14.01,2014-01-19 01:48:00,
2014-01-18 20:53:00,26.3,24.6,29.44,NNW,338,3.1,3.4,93,0.00,,,0.00,VWS V14.01,2014-01-19 01:53:00,
2014-01-18 20:58:00,26.3,24.6,29.44,NNW,338,3.1,3.4,93,0.00,,,0.00,VWS V14.01,2014-01-19 01:58:00,
2014-01-18 21:00:00,26.3,24.6,29.44,NNW,338,2.5,3.1,93,0.00,,,0.00,VWS V14.01,2014-01-19 02:00:00,
2014-01-18 21:03:00,26.3,24.6,29.47,NNW,338,2.5,2.9,93,0.00,,,0.00,VWS V14.01,2014-01-19 02:03:00,
2014-01-18 21:08:00,26.3,24.6,29.47,NNW,338,2.2,3.4,93,0.00,,,0.00,VWS V14.01,2014-01-19 02:08:00,
2014-01-18 21:13:00,26.3,24.6,29.47,NNW,338,2.0,2.7,93,0.00,,,0.00,VWS V14.01,2014-01-19 02:13:00,
2014-01-18 21:18:00,26.3,24.6,29.47,NNW,338,2.5,2.5,93,0.00,,,0.00,VWS V14.01,2014-01-19 02:18:00,
2014-01-18 21:23:00,26.3,24.6,29.47,NNW,338,2.2,2.5,93,0.00,,,0.00,VWS V14.01,2014-01-19 02:23:00,
2014-01-18 21:28:00,26.3,24.6,29.47,NNW,338,1.1,2.0,93,0.00,,,0.00,VWS V14.01,2014-01-19 02:28:00,
2014-01-18 21:30:00,26.3,24.6,29.47,NNW,338,2.2,2.5,93,0.00,,,0.00,VWS V14.01,2014-01-19 02:30:00,
2014-01-18 21:33:00,26.3,24.6,29.47,NNW,338,2.2,2.2,93,0.00,,,0.00,VWS V14.01,2014-01-19 02:33:00,
2014-01-18 21:38:00,26.3,24.6,29.47,NNW,338,1.3,2.5,93,0.00,,,0.00,VWS V14.01,2014-01-19 02:38:00,
2014-01-18 21:43:00,26.3,24.6,29.47,NNW,338,1.6,1.6,93,0.00,,,0.00,VWS V14.01,2014-01-19 02:43:00,
2014-01-18 21:48:00,26.3,24.6,29.47,NNW,338,2.0,2.5,93,0.00,,,0.00,VWS V14.01,2014-01-19 02:48:00,
2014-01-18 21:53:00,26.3,24.6,29.47,NNW,338,2.5,3.4,93,0.00,,,0.00,VWS V14.01,2014-01-19 02:53:00,
2014-01-18 21:58:00,26.3,24.6,29.47,NNW,338,2.5,2.5,93,0.00,,,0.00,VWS V14.01,2014-01-19 02:58:00,
2014-01-18 22:00:00,26.3,24.6,29.47,NNW,338,2.0,3.4,93,0.00,,,0.00,VWS V14.01,2014-01-19 03:00:00,
2014-01-18 22:03:00,26.3,24.6,29.47,NNW,338,2.5,2.5,93,0.00,,,0.00,VWS V14.01,2014-01-19 03:03:00,
2014-01-18 22:08:00,26.3,24.6,29.47,NNW,338,2.7,2.7,93,0.00,,,0.00,VWS V14.01,2014-01-19 03:08:00,
2014-01-18 22:13:00,26.3,24.6,29.47,NNW,338,1.3,1.6,93,0.00,,,0.00,VWS V14.01,2014-01-19 03:13:00,
2014-01-18 22:18:00,26.3,24.6,29.47,NNW,338,1.6,1.6,93,0.00,,,0.00,VWS V14.01,2014-01-19 03:18:00,
2014-01-18 22:23:00,26.3,24.6,29.47,NNW,338,0.0,1.3,93,0.00,,,0.00,VWS V14.01,2014-01-19 03:23:00,
2014-01-18 22:28:00,26.3,24.6,29.47,NNW,338,0.9,1.6,93,0.00,,,0.00,VWS V14.01,2014-01-19 03:28:00,
2014-01-18 22:30:00,26.3,24.6,29.47,NNW,338,1.3,1.3,93,0.00,,,0.00,VWS V14.01,2014-01-19 03:30:00,
2014-01-18 22:33:00,26.3,24.6,29.47,NNW,338,0.0,0.0,93,0.00,,,0.00,VWS V14.01,2014-01-19 03:33:00,
2014-01-18 22:38:00,26.3,24.6,29.47,NNW,338,0.0,0.0,93,0.00,,,0.00,VWS V14.01,2014-01-19 03:38:00,
2014-01-18 22:43:00,26.3,24.6,29.47,NNW,338,0.0,0.0,93,0.00,,,0.00,VWS V14.01,2014-01-19 03:43:00,
2014-01-18 22:48:00,26.3,24.6,29.47,NNW,338,0.0,0.0,93,0.00,,,0.00,VWS V14.01,2014-01-19 03:48:00,
2014-01-18 22:53:00,26.3,24.6,29.47,NNW,338,0.0,0.0,93,0.00,,,0.00,VWS V14.01,2014-01-19 03:53:00,
2014-01-18 22:58:00,26.3,24.6,29.47,NNW,338,0.0,0.0,93,0.00,,,0.00,VWS V14.01,2014-01-19 03:58:00,
2014-01-18 23:00:00,26.3,24.6,29.47,NNW,338,0.0,0.0,93,0.00,,,0.00,VWS V14.01,2014-01-19 04:00:00,
2014-01-18 23:03:00,26.3,24.6,29.47,NNW,338,0.0,0.0,93,0.00,,,0.00,VWS V14.01,2014-01-19 04:03:00,
2014-01-18 23:08:00,26.3,24.6,29.47,NNW,338,0.0,0.0,93,0.00,,,0.00,VWS V14.01,2014-01-19 04:08:00,
2014-01-18 23:13:00,26.3,24.6,29.47,NNW,338,0.0,0.0,93,0.00,,,0.00,VWS V14.01,2014-01-19 04:13:00,
2014-01-18 23:18:00,26.3,24.6,29.47,NNW,338,0.0,0.0,93,0.00,,,0.00,VWS V14.01,2014-01-19 04:18:00,
2014-01-18 23:23:00,26.3,24.6,29.47,NNW,338,0.0,0.0,93,0.00,,,0.00,VWS V14.01,2014-01-19 04:23:00,
2014-01-18 23:28:00,26.3,24.6,29.47,NNW,338,0.0,0.0,93,0.00,,,0.00,VWS V14.01,2014-01-19 04:28:00,
2014-01-18 23:30:00,26.3,24.6,29.47,NNW,338,0.0,0.0,93,0.00,,SKC,0.00,VWS V15.00,2014-01-19 04:30:00,
2014-01-18 23:33:00,26.3,24.6,29.47,NNW,338,0.0,0.0,93,0.00,,,0.00,VWS V14.01,2014-01-19 04:33:00,
2014-01-18 23:38:00,26.3,24.6,29.47,NNW,338,0.0,0.0,93,0.00,,,0.00,VWS V14.01,2014-01-19 04:38:00,
2014-01-18 23:43:00,26.3,24.6,29.47,NNW,338,0.0,0.0,93,0.00,,,0.00,VWS V14.01,2014-01-19 04:43:00,
2014-01-18 23:48:00,26.3,24.6,29.47,NNW,338,0.0,0.0,93,0.00,,,0.00,VWS V14.01,2014-01-19 04:48:00,
2014-01-18 23:53:00,26.3,24.6,29.47,NNW,338,0.0,0.0,93,0.00,,,0.00,VWS V14.01,2014-01-19 04:53:00,
2014-01-18 23:58:00,26.3,24.6,29.47,NNW,338,0.0,0.0,93,0.00,,,0.00,VWS V14.01,2014-01-19 04:58:00,